createdAt,value
2016-06-05T00:00:12.352Z,91.83
2016-06-05T00:01:12.355Z,92.21
2016-06-05T00:02:12.342Z,92.21
2016-06-05T00:03:12.344Z,91.73
2016-06-05T00:04:12.347Z,92.21
2016-06-05T00:05:12.350Z,92.11
2016-06-05T00:06:12.353Z,92.3
2016-06-05T00:07:12.355Z,91.83
2016-06-05T00:08:12.404Z,91.83
2016-06-05T00:09:12.361Z,92.11
2016-06-05T00:10:12.347Z,92.21
2016-06-05T00:11:12.350Z,92.11
2016-06-05T00:12:12.353Z,92.11
2016-06-05T00:13:12.372Z,92.02
2016-06-05T00:14:12.358Z,91.92
2016-06-05T00:15:12.360Z,92.02
2016-06-05T00:16:12.363Z,92.02
2016-06-05T00:17:12.366Z,92.07
2016-06-05T00:18:12.369Z,92.3
2016-06-05T00:19:12.372Z,92.02
2016-06-05T00:20:12.359Z,92.11
2016-06-05T00:21:12.362Z,91.92
2016-06-05T00:22:12.365Z,91.92
2016-06-05T00:23:12.367Z,91.83
2016-06-05T00:24:12.370Z,92.02
2016-06-05T00:25:12.373Z,91.73
2016-06-05T00:26:12.376Z,91.92
2016-06-05T00:27:12.378Z,92.21
2016-06-05T00:28:12.225Z,92.21
2016-06-05T00:29:12.367Z,92.11
2016-06-05T00:30:12.370Z,92.21
2016-06-05T00:31:12.373Z,91.83
2016-06-05T00:32:12.375Z,92.11
2016-06-05T00:33:12.394Z,91.97
2016-06-05T00:34:12.381Z,92.02
2016-06-05T00:35:12.227Z,91.78
2016-06-05T00:36:12.371Z,91.92
2016-06-05T00:37:12.374Z,91.97
2016-06-05T00:38:12.377Z,91.83
2016-06-05T00:39:12.394Z,92.02
2016-06-05T00:40:12.382Z,91.83
2016-06-05T00:41:12.385Z,91.73
2016-06-05T00:42:12.403Z,91.73
2016-06-05T00:43:12.624Z,92.02
2016-06-05T00:44:12.376Z,91.53
2016-06-05T00:45:12.380Z,92.02
2016-06-05T00:46:12.398Z,92.02
2016-06-05T00:47:12.384Z,92.11
2016-06-05T00:48:12.387Z,91.92
2016-06-05T00:49:12.390Z,91.92
2016-06-05T00:50:12.393Z,92.11
2016-06-05T00:51:12.412Z,92.11
2016-06-05T00:52:12.398Z,92.02
2016-06-05T00:53:12.385Z,92.02
2016-06-05T00:54:12.388Z,92.02
2016-06-05T00:55:12.390Z,92.11
2016-06-05T00:56:12.393Z,92.3
2016-06-05T00:57:12.396Z,91.92
2016-06-05T00:58:12.399Z,91.92
2016-06-05T00:59:12.401Z,91.92
2016-06-05T01:00:12.404Z,91.73
2016-06-05T01:01:12.407Z,91.44
2016-06-05T01:02:12.394Z,91.53
2016-06-05T01:03:12.411Z,91.53
2016-06-05T01:04:12.400Z,91.73
2016-06-05T01:05:12.402Z,91.63
2016-06-05T01:06:12.405Z,91.73
2016-06-05T01:07:12.408Z,91.83
2016-06-05T01:08:12.410Z,91.83
2016-06-05T01:09:12.413Z,91.83
2016-06-05T01:10:12.259Z,92.02
2016-06-05T01:11:12.403Z,91.63
2016-06-05T01:12:12.405Z,91.63
2016-06-05T01:13:12.408Z,91.92
2016-06-05T01:14:12.410Z,91.88
2016-06-05T01:15:12.413Z,91.78
2016-06-05T01:16:12.416Z,91.97
2016-06-05T01:17:12.418Z,92.07
2016-06-05T01:18:12.405Z,91.88
2016-06-05T01:19:12.424Z,91.78
2016-06-05T01:20:12.411Z,91.97
2016-06-05T01:21:12.430Z,92.54
2016-06-05T01:22:12.416Z,92.64
2016-06-05T01:23:12.419Z,92.16
2016-06-05T01:24:12.421Z,92.64
2016-06-05T01:25:12.424Z,92.83
2016-06-05T01:26:12.412Z,92.45
2016-06-05T01:27:12.414Z,92.45
2016-06-05T01:28:12.917Z,92.64
2016-06-05T01:29:12.420Z,92.69
2016-06-05T01:30:12.422Z,92.4
2016-06-05T01:31:12.426Z,92.69
2016-06-05T01:32:12.428Z,92.59
2016-06-05T01:33:12.430Z,92.69
2016-06-05T01:34:12.417Z,92.49
2016-06-05T01:35:12.436Z,92.78
2016-06-05T01:36:12.423Z,92.78
2016-06-05T01:37:12.426Z,92.49
2016-06-05T01:38:12.428Z,92.97
2016-06-05T01:39:12.430Z,92.54
2016-06-05T01:40:12.450Z,92.49
2016-06-05T01:41:12.436Z,92.54
2016-06-05T01:42:12.439Z,92.64
2016-06-05T01:43:12.458Z,92.69
2016-06-05T01:44:12.430Z,92.64
2016-06-05T01:45:12.432Z,92.16
2016-06-05T01:46:12.434Z,92.49
2016-06-05T01:47:12.437Z,92.49
2016-06-05T01:48:12.440Z,92.3
2016-06-05T01:49:12.442Z,92.49
2016-06-05T01:50:12.430Z,92.3
2016-06-05T01:51:12.448Z,92.4
2016-06-05T01:52:12.435Z,92.16
2016-06-05T01:53:12.437Z,92.3
2016-06-05T01:54:12.440Z,92.3
2016-06-05T01:55:12.443Z,92.4
2016-06-05T01:56:12.446Z,92.69
2016-06-05T01:57:12.448Z,92.3
2016-06-05T01:58:12.450Z,92.69
2016-06-05T01:59:12.297Z,92.69
2016-06-05T02:00:12.598Z,92.69
2016-06-05T02:01:12.459Z,92.69
2016-06-05T02:02:12.446Z,92.88
2016-06-05T02:03:12.465Z,92.59
2016-06-05T02:04:12.451Z,92.69
2016-06-05T02:05:12.454Z,92.64
2016-06-05T02:06:12.441Z,92.25
2016-06-05T02:07:12.459Z,92.54
2016-06-05T02:08:12.603Z,92.45
2016-06-05T02:09:12.449Z,92.45
2016-06-05T02:10:12.452Z,92.45
2016-06-05T02:11:12.455Z,92.45
2016-06-05T02:12:12.458Z,92.35
2016-06-05T02:13:12.569Z,92.54
2016-06-05T02:14:12.463Z,92.35
2016-06-05T02:15:12.449Z,93.12
2016-06-05T02:16:12.452Z,92.74
2016-06-05T02:17:12.455Z,92.54
2016-06-05T02:18:12.457Z,93.31
2016-06-05T02:19:12.460Z,92.93
2016-06-05T02:20:12.307Z,92.74
2016-06-05T02:21:12.450Z,93.6
2016-06-05T02:22:12.468Z,93.5
2016-06-05T02:23:12.455Z,93.6
2016-06-05T02:24:12.473Z,93.31
2016-06-05T02:25:12.460Z,93.12
2016-06-05T02:26:12.464Z,93.5
2016-06-05T02:27:12.466Z,93.31
2016-06-05T02:28:12.468Z,93.5
2016-06-05T02:29:12.471Z,93.31
2016-06-05T02:30:12.474Z,93.21
2016-06-05T02:31:12.462Z,93.5
2016-06-05T02:32:12.464Z,93.88
2016-06-05T02:33:12.467Z,93.88
2016-06-05T02:34:12.470Z,94.07
2016-06-05T02:35:12.472Z,93.88
2016-06-05T02:36:12.475Z,93.98
2016-06-05T02:37:12.478Z,94.07
2016-06-05T02:38:12.481Z,94.07
2016-06-05T02:39:12.467Z,94.07
2016-06-05T02:40:12.485Z,94.07
2016-06-05T02:41:12.473Z,93.88
2016-06-05T02:42:12.475Z,93.31
2016-06-05T02:43:13.165Z,93.4
2016-06-05T02:44:12.325Z,93.4
2016-06-05T02:45:12.483Z,93.4
2016-06-05T02:46:12.486Z,93.31
2016-06-05T02:47:12.474Z,93.12
2016-06-05T02:48:12.492Z,93.12
2016-06-05T02:49:12.479Z,93.31
2016-06-05T02:50:12.482Z,93.45
2016-06-05T02:51:12.485Z,93.16
2016-06-05T02:52:12.738Z,93.55
2016-06-05T02:53:12.490Z,93.31
2016-06-05T02:54:12.476Z,93.5
2016-06-05T02:55:12.480Z,93.55
2016-06-05T02:56:12.482Z,93.64
2016-06-05T02:57:12.500Z,93.5
2016-06-05T02:58:12.332Z,93.55
2016-06-05T02:59:12.490Z,93.74
2016-06-05T03:00:12.492Z,93.45
2016-06-05T03:01:12.495Z,93.84
2016-06-05T03:02:12.498Z,93.45
2016-06-05T03:03:12.501Z,93.4
2016-06-05T03:04:12.487Z,93.5
2016-06-05T03:05:12.506Z,93.5
2016-06-05T03:06:12.492Z,93.5
2016-06-05T03:07:12.495Z,93.4
2016-06-05T03:08:12.498Z,93.5
2016-06-05T03:09:12.500Z,93.21
2016-06-05T03:10:12.504Z,93.5
2016-06-05T03:11:12.507Z,93.5
2016-06-05T03:12:12.509Z,93.31
2016-06-05T03:13:12.512Z,93.31
2016-06-05T03:14:12.499Z,93.5
2016-06-05T03:15:12.502Z,93.31
2016-06-05T03:16:12.505Z,93.21
2016-06-05T03:17:12.507Z,93.31
2016-06-05T03:18:12.494Z,93.21
2016-06-05T03:19:12.512Z,93.88
2016-06-05T03:20:12.499Z,93.4
2016-06-05T03:21:12.502Z,93.31
2016-06-05T03:22:12.504Z,93.31
2016-06-05T03:23:12.507Z,93.12
2016-06-05T03:24:12.510Z,93.21
2016-06-05T03:25:12.513Z,93.21
2016-06-05T03:26:12.500Z,93.5
2016-06-05T03:27:12.518Z,93.4
2016-06-05T03:28:12.505Z,93.4
2016-06-05T03:29:12.508Z,93.4
2016-06-05T03:30:12.510Z,93.12
2016-06-05T03:31:12.513Z,93.5
2016-06-05T03:32:12.516Z,93.12
2016-06-05T03:33:12.503Z,93.21
2016-06-05T03:34:12.521Z,93.4
2016-06-05T03:35:12.524Z,93.21
2016-06-05T03:36:12.527Z,93.21
2016-06-05T03:37:12.514Z,93.31
2016-06-05T03:38:12.517Z,93.5
2016-06-05T03:39:12.520Z,93.12
2016-06-05T03:40:12.522Z,93.4
2016-06-05T03:41:12.369Z,93.12
2016-06-05T03:42:12.527Z,93.5
2016-06-05T03:43:12.671Z,93.31
2016-06-05T03:44:12.533Z,93.12
2016-06-05T03:45:12.519Z,93.12
2016-06-05T03:46:12.522Z,93.12
2016-06-05T03:47:12.525Z,93.21
2016-06-05T03:48:12.528Z,93.31
2016-06-05T03:49:12.531Z,93.16
2016-06-05T03:50:12.533Z,93.31
2016-06-05T03:51:12.536Z,93.31
2016-06-05T03:52:12.524Z,93.6
2016-06-05T03:53:12.526Z,93.5
2016-06-05T03:54:12.529Z,93.4
2016-06-05T03:55:12.532Z,93.5
2016-06-05T03:56:12.534Z,93.5
2016-06-05T03:57:12.537Z,93.55
2016-06-05T03:58:12.992Z,93.55
2016-06-05T03:59:12.526Z,93.55
2016-06-05T04:00:12.529Z,93.74
2016-06-05T04:01:12.532Z,93.55
2016-06-05T04:02:12.535Z,93.64
2016-06-05T04:03:12.537Z,93.64
2016-06-05T04:04:12.540Z,93.26
2016-06-05T04:05:12.543Z,92.78
2016-06-05T04:06:12.545Z,92.78
2016-06-05T04:07:12.548Z,92.97
2016-06-05T04:08:12.691Z,92.97
2016-06-05T04:09:12.537Z,93.16
2016-06-05T04:10:12.540Z,93.07
2016-06-05T04:11:12.543Z,93.07
2016-06-05T04:12:12.545Z,92.88
2016-06-05T04:13:12.392Z,92.69
2016-06-05T04:14:12.551Z,93.16
2016-06-05T04:15:12.539Z,93.12
2016-06-05T04:16:12.541Z,93.07
2016-06-05T04:17:12.551Z,93.16
2016-06-05T04:18:12.581Z,93.07
2016-06-05T04:19:12.611Z,92.4
2016-06-05T04:20:12.642Z,92.49
2016-06-05T04:21:12.672Z,92.49
2016-06-05T04:22:12.698Z,92.54
2016-06-05T04:23:12.694Z,92.63
2016-06-05T04:24:12.707Z,92.35
2016-06-05T04:25:12.720Z,92.63
2016-06-05T04:26:12.733Z,91.87
2016-06-05T04:27:12.744Z,92.06
2016-06-05T04:28:12.814Z,92.02
2016-06-05T04:29:13.038Z,91.68
2016-06-05T04:30:12.764Z,92.16
2016-06-05T04:31:12.754Z,92.16
2016-06-05T04:32:12.760Z,91.87
2016-06-05T04:33:12.763Z,92.25
2016-06-05T04:34:12.768Z,91.68
2016-06-05T04:35:12.771Z,91.77
2016-06-05T04:36:12.775Z,91.49
2016-06-05T04:37:12.794Z,91.97
2016-06-05T04:38:12.782Z,91.39
2016-06-05T04:39:12.769Z,91.39
2016-06-05T04:40:12.773Z,91.3
2016-06-05T04:41:12.776Z,91.11
2016-06-05T04:42:12.779Z,91.3
2016-06-05T04:43:12.830Z,91.58
2016-06-05T04:44:12.786Z,91.11
2016-06-05T04:45:12.788Z,90.82
2016-06-05T04:46:12.792Z,90.91
2016-06-05T04:47:12.778Z,90.63
2016-06-05T04:48:12.781Z,91.2
2016-06-05T04:49:12.784Z,91.01
2016-06-05T04:50:12.786Z,91.11
2016-06-05T04:51:12.789Z,90.72
2016-06-05T04:52:12.792Z,90.72
2016-06-05T04:53:12.795Z,90.72
2016-06-05T04:54:12.797Z,90.82
2016-06-05T04:55:12.800Z,90.82
2016-06-05T04:56:12.787Z,90.24
2016-06-05T04:57:12.791Z,90.53
2016-06-05T04:58:13.339Z,90.15
2016-06-05T04:59:12.796Z,90.24
2016-06-05T05:00:12.798Z,90.34
2016-06-05T05:01:12.801Z,90.05
2016-06-05T05:02:12.804Z,90.05
2016-06-05T05:03:12.806Z,90.24
2016-06-05T05:04:12.637Z,90.24
2016-06-05T05:05:12.796Z,90.05
2016-06-05T05:06:12.799Z,89.76
2016-06-05T05:07:12.801Z,90.05
2016-06-05T05:08:12.804Z,89.95
2016-06-05T05:09:12.807Z,90.24
2016-06-05T05:10:12.810Z,90.44
2016-06-05T05:11:12.812Z,90.24
2016-06-05T05:12:12.798Z,90.2
2016-06-05T05:13:13.240Z,90.24
2016-06-05T05:14:12.804Z,90.24
2016-06-05T05:15:12.807Z,90.34
2016-06-05T05:16:12.809Z,90.15
2016-06-05T05:17:12.812Z,89.95
2016-06-05T05:18:12.815Z,89.67
2016-06-05T05:19:12.817Z,89.48
2016-06-05T05:20:12.805Z,89.67
2016-06-05T05:21:12.808Z,89.58
2016-06-05T05:22:12.811Z,89.58
2016-06-05T05:23:12.814Z,89.29
2016-06-05T05:24:12.816Z,89.38
2016-06-05T05:25:12.819Z,89.19
2016-06-05T05:26:12.822Z,89.38
2016-06-05T05:27:12.824Z,89.23
2016-06-05T05:28:12.827Z,89.04
2016-06-05T05:29:12.813Z,88.62
2016-06-05T05:30:12.816Z,89.14
2016-06-05T05:31:12.819Z,88.95
2016-06-05T05:32:12.822Z,88.76
2016-06-05T05:33:12.824Z,88.66
2016-06-05T05:34:12.827Z,88.47
2016-06-05T05:35:12.829Z,88.09
2016-06-05T05:36:12.832Z,87.9
2016-06-05T05:37:12.835Z,88.18
2016-06-05T05:38:12.822Z,87.61
2016-06-05T05:39:12.840Z,87.7
2016-06-05T05:40:12.859Z,87.61
2016-06-05T05:41:12.830Z,87.74
2016-06-05T05:42:12.833Z,87.84
2016-06-05T05:43:12.835Z,87.37
2016-06-05T05:44:12.837Z,87.27
2016-06-05T05:45:12.841Z,87.74
2016-06-05T05:46:12.828Z,87.08
2016-06-05T05:47:12.846Z,86.69
2016-06-05T05:48:12.833Z,86.79
2016-06-05T05:49:12.836Z,86.16
2016-06-05T05:50:12.839Z,86.45
2016-06-05T05:51:12.842Z,86.16
2016-06-05T05:52:12.844Z,85.72
2016-06-05T05:53:12.847Z,85.82
2016-06-05T05:54:12.850Z,85
2016-06-05T05:55:12.852Z,84.81
2016-06-05T05:56:12.839Z,84.14
2016-06-05T05:57:12.842Z,83.94
2016-06-05T05:58:12.845Z,83.51
2016-06-05T05:59:12.847Z,82.45
2016-06-05T06:00:12.694Z,82.54
2016-06-05T06:01:12.853Z,81.87
2016-06-05T06:02:12.871Z,81.82
2016-06-05T06:03:12.858Z,81.24
2016-06-05T06:04:12.861Z,80.57
2016-06-05T06:05:12.863Z,80.86
2016-06-05T06:06:12.851Z,80.57
2016-06-05T06:07:12.712Z,79.99
2016-06-05T06:08:12.918Z,79.9
2016-06-05T06:09:12.859Z,79.71
2016-06-05T06:10:12.861Z,79.42
2016-06-05T06:11:12.864Z,79.65
2016-06-05T06:12:12.867Z,79.17
2016-06-05T06:13:12.713Z,78.98
2016-06-05T06:14:12.872Z,78.78
2016-06-05T06:15:12.718Z,78.69
2016-06-05T06:16:12.878Z,78.3
2016-06-05T06:17:12.880Z,78.27
2016-06-05T06:18:12.883Z,78.27
2016-06-05T06:19:12.870Z,78.27
2016-06-05T06:20:12.873Z,78.17
2016-06-05T06:21:12.719Z,78.27
2016-06-05T06:22:12.878Z,78.27
2016-06-05T06:23:12.880Z,78.36
2016-06-05T06:24:12.884Z,78.84
2016-06-05T06:25:12.886Z,78.75
2016-06-05T06:26:12.888Z,78.84
2016-06-05T06:27:12.891Z,78.75
2016-06-05T06:28:12.894Z,78.17
2016-06-05T06:29:12.896Z,78.17
2016-06-05T06:30:12.883Z,78.45
2016-06-05T06:31:12.730Z,78.27
2016-06-05T06:32:12.889Z,78.13
2016-06-05T06:33:12.891Z,78.32
2016-06-05T06:34:12.894Z,78.9
2016-06-05T06:35:12.897Z,78.23
2016-06-05T06:36:12.899Z,78.52
2016-06-05T06:37:12.902Z,78.99
2016-06-05T06:38:12.905Z,78.52
2016-06-05T06:39:12.908Z,78.7
2016-06-05T06:40:12.910Z,79.28
2016-06-05T06:41:12.898Z,79.09
2016-06-05T06:42:12.916Z,78.52
2016-06-05T06:43:13.871Z,78.9
2016-06-05T06:44:12.906Z,79.09
2016-06-05T06:45:12.924Z,78.52
2016-06-05T06:46:12.911Z,78.23
2016-06-05T06:47:12.915Z,78.75
2016-06-05T06:48:12.917Z,78.08
2016-06-05T06:49:12.919Z,78.17
2016-06-05T06:50:12.906Z,77.69
2016-06-05T06:51:12.925Z,77.11
2016-06-05T06:52:12.928Z,77.5
2016-06-05T06:53:12.930Z,77.59
2016-06-05T06:54:12.933Z,77.21
2016-06-05T06:55:12.919Z,77.01
2016-06-05T06:56:12.922Z,77.11
2016-06-05T06:57:12.925Z,77.01
2016-06-05T06:58:13.569Z,76.82
2016-06-05T06:59:12.930Z,76.82
2016-06-05T07:00:12.949Z,76.25
2016-06-05T07:01:12.936Z,76.54
2016-06-05T07:02:12.938Z,76.15
2016-06-05T07:03:12.941Z,75.87
2016-06-05T07:04:12.944Z,75.81
2016-06-05T07:05:12.947Z,75.38
2016-06-05T07:06:12.950Z,75.77
2016-06-05T07:07:12.952Z,75.52
2016-06-05T07:08:12.939Z,75.52
2016-06-05T07:09:12.942Z,75.42
2016-06-05T07:10:12.960Z,75.52
2016-06-05T07:11:12.946Z,75.52
2016-06-05T07:12:12.949Z,75.04
2016-06-05T07:13:12.953Z,74.65
2016-06-05T07:14:12.955Z,75.04
2016-06-05T07:15:12.958Z,74.37
2016-06-05T07:16:12.960Z,74.37
2016-06-05T07:17:12.962Z,74.37
2016-06-05T07:18:12.966Z,73.54
2016-06-05T07:19:12.969Z,73.83
2016-06-05T07:20:12.971Z,73.44
2016-06-05T07:21:12.958Z,73.54
2016-06-05T07:22:12.976Z,73.15
2016-06-05T07:23:12.979Z,73.25
2016-06-05T07:24:12.967Z,72.19
2016-06-05T07:25:12.969Z,72.42
2016-06-05T07:26:12.972Z,71.94
2016-06-05T07:27:12.975Z,71.65
2016-06-05T07:28:13.790Z,71.26
2016-06-05T07:29:12.980Z,70.82
2016-06-05T07:30:12.983Z,70.43
2016-06-05T07:31:12.986Z,69.7
2016-06-05T07:32:12.988Z,69.12
2016-06-05T07:33:12.991Z,68.54
2016-06-05T07:34:12.994Z,68.84
2016-06-05T07:35:12.824Z,68.44
2016-06-05T07:36:12.999Z,67.87
2016-06-05T07:37:12.985Z,67.97
2016-06-05T07:38:13.020Z,67.68
2016-06-05T07:39:12.991Z,67.49
2016-06-05T07:40:12.838Z,67.19
2016-06-05T07:41:12.996Z,67.1
2016-06-05T07:42:12.999Z,67.29
2016-06-05T07:43:13.002Z,67.58
2016-06-05T07:44:13.207Z,67.49
2016-06-05T07:45:13.023Z,66.62
2016-06-05T07:46:13.010Z,67.1
2016-06-05T07:47:13.013Z,66.71
2016-06-05T07:48:13.015Z,66.62
2016-06-05T07:49:13.018Z,66.62
2016-06-05T07:50:13.021Z,66.14
2016-06-05T07:51:13.008Z,65.98
2016-06-05T07:52:13.026Z,65.4
2016-06-05T07:53:13.029Z,65.11
2016-06-05T07:54:13.031Z,64.95
2016-06-05T07:55:13.034Z,64.56
2016-06-05T07:56:13.022Z,64.37
2016-06-05T07:57:13.024Z,63.89
2016-06-05T07:58:13.043Z,63.98
2016-06-05T07:59:13.030Z,63.6
2016-06-05T08:00:12.875Z,63.12
2016-06-05T08:01:13.036Z,63.34
2016-06-05T08:02:13.038Z,62.86
2016-06-05T08:03:13.040Z,62.96
2016-06-05T08:04:13.043Z,62.83
2016-06-05T08:05:13.046Z,63.41
2016-06-05T08:06:13.049Z,63.41
2016-06-05T08:07:13.051Z,63.41
2016-06-05T08:08:13.100Z,63.5
2016-06-05T08:09:13.072Z,63.76
2016-06-05T08:10:13.059Z,63.95
2016-06-05T08:11:13.062Z,64.25
2016-06-05T08:12:13.065Z,65.01
2016-06-05T08:13:13.333Z,64.89
2016-06-05T08:14:13.070Z,65.46
2016-06-05T08:15:13.072Z,65.46
2016-06-05T08:16:13.075Z,65.46
2016-06-05T08:17:13.078Z,65.72
2016-06-05T08:18:13.081Z,65.91
2016-06-05T08:19:13.083Z,66.01
2016-06-05T08:20:13.070Z,66.1
2016-06-05T08:21:13.089Z,66.58
2016-06-05T08:22:13.091Z,66.78
2016-06-05T08:23:13.095Z,66.68
2016-06-05T08:24:13.097Z,66.94
2016-06-05T08:25:13.084Z,66.94
2016-06-05T08:26:13.102Z,67.42
2016-06-05T08:27:13.089Z,67.03
2016-06-05T08:28:12.983Z,67.61
2016-06-05T08:29:13.111Z,67.9
2016-06-05T08:30:13.097Z,67.61
2016-06-05T08:31:13.100Z,67.8
2016-06-05T08:32:13.103Z,67.61
2016-06-05T08:33:13.106Z,67.51
2016-06-05T08:34:13.108Z,67.16
2016-06-05T08:35:13.127Z,67.35
2016-06-05T08:36:13.113Z,67.16
2016-06-05T08:37:13.116Z,66.97
2016-06-05T08:38:13.118Z,66.68
2016-06-05T08:39:13.121Z,66.71
2016-06-05T08:40:13.124Z,66.78
2016-06-05T08:41:13.127Z,66.68
2016-06-05T08:42:12.974Z,66.68
2016-06-05T08:43:14.335Z,66.78
2016-06-05T08:44:13.135Z,66.71
2016-06-05T08:45:13.138Z,66.33
2016-06-05T08:46:13.140Z,66.33
2016-06-05T08:47:13.143Z,66.42
2016-06-05T08:48:13.146Z,66.3
2016-06-05T08:49:13.148Z,66.2
2016-06-05T08:50:12.995Z,66.1
2016-06-05T08:51:13.154Z,65.72
2016-06-05T08:52:13.156Z,66.2
2016-06-05T08:53:13.159Z,65.91
2016-06-05T08:54:13.161Z,65.33
2016-06-05T08:55:13.148Z,65.53
2016-06-05T08:56:13.167Z,65.17
2016-06-05T08:57:13.170Z,65.27
2016-06-05T08:58:13.547Z,64.59
2016-06-05T08:59:13.175Z,64.89
2016-06-05T09:00:13.178Z,64.98
2016-06-05T09:01:13.181Z,64.4
2016-06-05T09:02:13.167Z,64.31
2016-06-05T09:03:13.186Z,64.69
2016-06-05T09:04:13.189Z,64.95
2016-06-05T09:05:13.176Z,64.76
2016-06-05T09:06:13.178Z,64.76
2016-06-05T09:07:13.181Z,64.66
2016-06-05T09:08:13.184Z,64.76
2016-06-05T09:09:13.202Z,64.66
2016-06-05T09:10:13.189Z,64.59
2016-06-05T09:11:13.191Z,64.02
2016-06-05T09:12:13.194Z,63.38
2016-06-05T09:13:13.213Z,63.38
2016-06-05T09:14:13.199Z,62.93
2016-06-05T09:15:13.202Z,61.87
2016-06-05T09:16:13.205Z,61.19
2016-06-05T09:17:13.052Z,60.16
2016-06-05T09:18:13.210Z,59.9
2016-06-05T09:19:13.213Z,59.42
2016-06-05T09:20:13.216Z,59.32
2016-06-05T09:21:13.219Z,58.26
2016-06-05T09:22:13.221Z,59.23
2016-06-05T09:23:13.223Z,59.32
2016-06-05T09:24:13.226Z,58.65
2016-06-05T09:25:13.230Z,58.75
2016-06-05T09:26:13.248Z,58.55
2016-06-05T09:27:13.250Z,58.45
2016-06-05T09:28:13.237Z,58.45
2016-06-05T09:29:13.240Z,58.17
2016-06-05T09:30:13.243Z,58.36
2016-06-05T09:31:13.245Z,58
2016-06-05T09:32:13.248Z,57.32
2016-06-05T09:33:13.251Z,57.52
2016-06-05T09:34:13.254Z,57.62
2016-06-05T09:35:13.256Z,58.1
2016-06-05T09:36:13.258Z,57.81
2016-06-05T09:37:13.261Z,57.71
2016-06-05T09:38:13.264Z,58.07
2016-06-05T09:39:13.267Z,58.55
2016-06-05T09:40:13.269Z,58.84
2016-06-05T09:41:13.273Z,59.42
2016-06-05T09:42:13.275Z,59.39
2016-06-05T09:43:13.121Z,59.23
2016-06-05T09:44:13.280Z,59.87
2016-06-05T09:45:13.283Z,60.06
2016-06-05T09:46:13.286Z,60.16
2016-06-05T09:47:13.288Z,60.26
2016-06-05T09:48:13.291Z,60.61
2016-06-05T09:49:13.294Z,61.65
2016-06-05T09:50:13.313Z,62.32
2016-06-05T09:51:13.315Z,62.87
2016-06-05T09:52:13.302Z,63.12
2016-06-05T09:53:13.289Z,63.89
2016-06-05T09:54:13.292Z,63.79
2016-06-05T09:55:13.310Z,64.43
2016-06-05T09:56:13.313Z,64.92
2016-06-05T09:57:13.315Z,65.2
2016-06-05T09:58:13.490Z,65.97
2016-06-05T09:59:13.321Z,66.17
2016-06-05T10:00:13.324Z,66.74
2016-06-05T10:01:13.326Z,67.42
2016-06-05T10:02:13.329Z,67.51
2016-06-05T10:03:13.331Z,67.99
2016-06-05T10:04:13.319Z,68.29
2016-06-05T10:05:13.336Z,68.38
2016-06-05T10:06:13.340Z,67.99
2016-06-05T10:07:13.342Z,67.8
2016-06-05T10:08:13.392Z,67.03
2016-06-05T10:09:13.332Z,67.32
2016-06-05T10:10:13.350Z,67.13
2016-06-05T10:11:13.353Z,66.94
2016-06-05T10:12:13.356Z,66.55
2016-06-05T10:13:13.405Z,66.74
2016-06-05T10:14:13.360Z,65.88
2016-06-05T10:15:13.348Z,65.88
2016-06-05T10:16:13.366Z,65.59
2016-06-05T10:17:13.354Z,65.01
2016-06-05T10:18:13.371Z,64.92
2016-06-05T10:19:13.906Z,64.92
2016-06-05T10:20:13.362Z,64.25
2016-06-05T10:21:13.364Z,64.63
2016-06-05T10:22:13.367Z,63.57
2016-06-05T10:23:13.385Z,63.48
2016-06-05T10:24:13.388Z,63.31
2016-06-05T10:25:13.376Z,63.22
2016-06-05T10:26:13.393Z,63.12
2016-06-05T10:27:13.380Z,62.87
2016-06-05T10:28:14.634Z,62.19
2016-06-05T10:29:13.496Z,61.71
2016-06-05T10:30:13.404Z,61.74
2016-06-05T10:31:13.406Z,60.39
2016-06-05T10:32:13.394Z,59.84
2016-06-05T10:33:13.397Z,59.36
2016-06-05T10:34:13.415Z,58.78
2016-06-05T10:35:13.402Z,57.85
2016-06-05T10:36:13.405Z,57.27
2016-06-05T10:37:13.423Z,56.91
2016-06-05T10:38:13.425Z,56.16
2016-06-05T10:39:13.428Z,55.01
2016-06-05T10:40:13.431Z,54.07
2016-06-05T10:41:13.261Z,53.11
2016-06-05T10:42:13.436Z,52.55
2016-06-05T10:43:14.049Z,52.39
2016-06-05T10:44:13.441Z,51.83
2016-06-05T10:45:13.445Z,50.86
2016-06-05T10:46:13.447Z,50.6
2016-06-05T10:47:13.449Z,50.02
2016-06-05T10:48:13.452Z,49.75
2016-06-05T10:49:13.455Z,48.9
2016-06-05T10:50:13.458Z,48.71
2016-06-05T10:51:13.460Z,47.77
2016-06-05T10:52:13.463Z,47.57
2016-06-05T10:53:13.465Z,46.82
2016-06-05T10:54:13.469Z,46.92
2016-06-05T10:55:13.471Z,46.14
2016-06-05T10:56:13.490Z,46.04
2016-06-05T10:57:13.474Z,46.12
2016-06-05T10:58:14.136Z,46.41
2016-06-05T10:59:14.060Z,45.51
2016-06-05T11:00:13.482Z,46.39
2016-06-05T11:01:13.484Z,47.04
2016-06-05T11:02:13.487Z,47.62
2016-06-05T11:03:13.490Z,48.66
2016-06-05T11:04:13.493Z,49.24
2016-06-05T11:05:13.496Z,49.54
2016-06-05T11:06:13.498Z,49.44
2016-06-05T11:07:13.500Z,48.08
2016-06-05T11:08:13.519Z,47.5
2016-06-05T11:09:13.506Z,47.6
2016-06-05T11:10:13.525Z,47.96
2016-06-05T11:11:13.528Z,48.32
2016-06-05T11:12:13.530Z,48.71
2016-06-05T11:13:13.533Z,48.71
2016-06-05T11:14:13.536Z,48.52
2016-06-05T11:15:13.539Z,49.39
2016-06-05T11:16:13.540Z,49
2016-06-05T11:17:13.543Z,48.52
2016-06-05T11:18:13.546Z,49.02
2016-06-05T11:19:13.549Z,49.6
2016-06-05T11:20:13.552Z,49.51
2016-06-05T11:21:13.554Z,48.76
2016-06-05T11:22:13.557Z,47.6
2016-06-05T11:23:13.559Z,48.01
2016-06-05T11:24:13.578Z,47.62
2016-06-05T11:25:13.581Z,46.66
2016-06-05T11:26:13.584Z,46.19
2016-06-05T11:27:13.587Z,46
2016-06-05T11:28:13.996Z,46.09
2016-06-05T11:29:13.592Z,46.29
2016-06-05T11:30:13.595Z,46.19
2016-06-05T11:31:13.597Z,46
2016-06-05T11:32:13.600Z,46
2016-06-05T11:33:13.618Z,45.22
2016-06-05T11:34:13.620Z,44.96
2016-06-05T11:35:13.608Z,44.3
2016-06-05T11:36:13.611Z,44.3
2016-06-05T11:37:13.628Z,44.01
2016-06-05T11:38:13.475Z,43.52
2016-06-05T11:39:13.634Z,44.3
2016-06-05T11:40:13.637Z,45.27
2016-06-05T11:41:13.639Z,45.25
2016-06-05T11:42:13.642Z,46.19
2016-06-05T11:43:13.644Z,45.05
2016-06-05T11:44:13.866Z,44.96
2016-06-05T11:45:13.650Z,44.86
2016-06-05T11:46:13.653Z,45.13
2016-06-05T11:47:13.515Z,44.74
2016-06-05T11:48:13.658Z,44.96
2016-06-05T11:49:13.677Z,44.76
2016-06-05T11:50:13.679Z,44.67
2016-06-05T11:51:13.682Z,44.67
2016-06-05T11:52:13.684Z,43.89
2016-06-05T11:53:13.687Z,44.01
2016-06-05T11:54:13.691Z,43.6
2016-06-05T11:55:13.693Z,43.79
2016-06-05T11:56:13.695Z,43.89
2016-06-05T11:57:13.713Z,44.18
2016-06-05T11:58:14.045Z,44.18
2016-06-05T11:59:13.718Z,44.96
2016-06-05T12:00:13.721Z,44.76
2016-06-05T12:01:13.724Z,45.34
2016-06-05T12:02:13.726Z,44.86
2016-06-05T12:03:13.729Z,45.15
2016-06-05T12:04:13.732Z,43.79
2016-06-05T12:05:13.750Z,44.09
2016-06-05T12:06:13.738Z,43.99
2016-06-05T12:07:13.585Z,44.67
2016-06-05T12:08:13.758Z,44.84
2016-06-05T12:09:13.762Z,44.96
2016-06-05T12:10:13.765Z,45.05
2016-06-05T12:11:13.767Z,44.67
2016-06-05T12:12:13.770Z,44.76
2016-06-05T12:13:14.320Z,43.31
2016-06-05T12:14:13.775Z,42.75
2016-06-05T12:15:13.793Z,42.26
2016-06-05T12:16:13.797Z,42.44
2016-06-05T12:17:13.783Z,42.24
2016-06-05T12:18:13.801Z,42.14
2016-06-05T12:19:13.805Z,41.95
2016-06-05T12:20:13.807Z,41.47
2016-06-05T12:21:13.825Z,41.37
2016-06-05T12:22:13.813Z,41.27
2016-06-05T12:23:13.815Z,41.45
2016-06-05T12:24:13.818Z,41.37
2016-06-05T12:25:13.835Z,41.56
2016-06-05T12:26:13.839Z,41.95
2016-06-05T12:27:13.840Z,42.24
2016-06-05T12:28:13.843Z,43.33
2016-06-05T12:29:13.846Z,43.52
2016-06-05T12:30:13.849Z,44.4
2016-06-05T12:31:13.851Z,44.68
2016-06-05T12:32:13.854Z,45.07
2016-06-05T12:33:13.857Z,46.33
2016-06-05T12:34:13.860Z,46.99
2016-06-05T12:35:13.879Z,47.77
2016-06-05T12:36:13.881Z,48.81
2016-06-05T12:37:13.883Z,49.49
2016-06-05T12:38:13.887Z,49.85
2016-06-05T12:39:13.889Z,50.5
2016-06-05T12:40:13.892Z,50.89
2016-06-05T12:41:13.878Z,51.56
2016-06-05T12:42:13.898Z,52.22
2016-06-05T12:43:14.134Z,52.51
2016-06-05T12:44:13.903Z,53.16
2016-06-05T12:45:13.906Z,53.06
2016-06-05T12:46:13.908Z,53.93
2016-06-05T12:47:13.755Z,53.64
2016-06-05T12:48:13.913Z,54
2016-06-05T12:49:13.932Z,54.68
2016-06-05T12:50:13.935Z,54.97
2016-06-05T12:51:13.937Z,55.45
2016-06-05T12:52:13.940Z,55.55
2016-06-05T12:53:13.943Z,55.62
2016-06-05T12:54:13.946Z,56.58
2016-06-05T12:55:13.948Z,56.48
2016-06-05T12:56:13.951Z,56.84